sensor_id;sensor_type;location;lat;lon;timestamp;pressure;altitude;pressure_sealevel;temperature;humidity
76746;BME280;65671;49.976;20.038;2023-07-20T00:01:13;97215.72;;;17.84;94.96
76746;BME280;65671;49.976;20.038;2023-07-20T00:03:38;97217.53;;;17.88;93.89
76746;BME280;65671;49.976;20.038;2023-07-20T00:06:04;97202.50;;;17.74;93.98
76746;BME280;65671;49.976;20.038;2023-07-20T00:08:30;97214.78;;;17.88;93.32
76746;BME280;65671;49.976;20.038;2023-07-20T00:10:55;97197.94;;;17.80;93.50
76746;BME280;65671;49.976;20.038;2023-07-20T00:13:21;97210.09;;;17.79;93.20
76746;BME280;65671;49.976;20.038;2023-07-20T00:15:47;97199.88;;;18.07;91.58
76746;BME280;65671;49.976;20.038;2023-07-20T00:18:12;97196.50;;;18.03;91.35
76746;BME280;65671;49.976;20.038;2023-07-20T00:20:39;97195.59;;;18.06;90.97
76746;BME280;65671;49.976;20.038;2023-07-20T00:23:04;97195.78;;;17.75;91.74
76746;BME280;65671;49.976;20.038;2023-07-20T00:25:30;97191.53;;;17.74;92.74
76746;BME280;65671;49.976;20.038;2023-07-20T00:27:55;97187.88;;;17.77;91.42
76746;BME280;65671;49.976;20.038;2023-07-20T00:30:21;97184.97;;;17.53;92.68
76746;BME280;65671;49.976;20.038;2023-07-20T00:32:46;97181.66;;;17.58;91.60
76746;BME280;65671;49.976;20.038;2023-07-20T00:35:12;97184.97;;;17.80;91.31
76746;BME280;65671;49.976;20.038;2023-07-20T00:37:39;97184.25;;;17.71;92.34
76746;BME280;65671;49.976;20.038;2023-07-20T00:40:05;97183.78;;;17.54;92.94
76746;BME280;65671;49.976;20.038;2023-07-20T00:42:33;97182.69;;;17.52;93.23
76746;BME280;65671;49.976;20.038;2023-07-20T00:44:59;97179.06;;;17.73;91.18
76746;BME280;65671;49.976;20.038;2023-07-20T00:47:24;97175.56;;;17.72;91.23
76746;BME280;65671;49.976;20.038;2023-07-20T00:49:51;97171.75;;;17.43;92.08
76746;BME280;65671;49.976;20.038;2023-07-20T00:52:18;97179.34;;;17.29;93.15
76746;BME280;65671;49.976;20.038;2023-07-20T00:54:45;97181.63;;;17.31;91.49
76746;BME280;65671;49.976;20.038;2023-07-20T00:57:16;97180.28;;;17.36;91.41
76746;BME280;65671;49.976;20.038;2023-07-20T00:59:42;97186.34;;;17.40;91.82
76746;BME280;65671;49.976;20.038;2023-07-20T01:02:08;97177.81;;;17.28;92.16
76746;BME280;65671;49.976;20.038;2023-07-20T01:04:34;97181.75;;;17.27;92.17
76746;BME280;65671;49.976;20.038;2023-07-20T01:07:04;97182.09;;;17.39;91.74
76746;BME280;65671;49.976;20.038;2023-07-20T01:12:43;97180.09;;;17.30;92.29
76746;BME280;65671;49.976;20.038;2023-07-20T01:15:12;97173.25;;;17.25;92.03
76746;BME280;65671;49.976;20.038;2023-07-20T01:17:37;97178.13;;;17.40;92.15
76746;BME280;65671;49.976;20.038;2023-07-20T01:20:03;97177.84;;;17.47;91.64
76746;BME280;65671;49.976;20.038;2023-07-20T01:31:24;97183.34;;;17.56;90.40
76746;BME280;65671;49.976;20.038;2023-07-20T01:33:53;97174.03;;;17.71;89.58
76746;BME280;65671;49.976;20.038;2023-07-20T01:36:19;97181.78;;;17.91;88.16
76746;BME280;65671;49.976;20.038;2023-07-20T01:38:47;97174.47;;;17.88;87.87
76746;BME280;65671;49.976;20.038;2023-07-20T01:41:13;97207.63;;;17.90;87.59
76746;BME280;65671;49.976;20.038;2023-07-20T01:43:40;97234.25;;;17.80;89.92
76746;BME280;65671;49.976;20.038;2023-07-20T01:46:06;97249.19;;;17.89;86.15
76746;BME280;65671;49.976;20.038;2023-07-20T01:48:31;97240.81;;;17.83;89.30
76746;BME280;65671;49.976;20.038;2023-07-20T01:50:57;97257.41;;;17.70;92.12
76746;BME280;65671;49.976;20.038;2023-07-20T01:53:22;97253.28;;;17.66;92.55
76746;BME280;65671;49.976;20.038;2023-07-20T01:55:48;97244.47;;;17.62;93.32
76746;BME280;65671;49.976;20.038;2023-07-20T01:58:13;97244.78;;;17.64;93.61
76746;BME280;65671;49.976;20.038;2023-07-20T02:00:39;97246.75;;;17.63;94.40
76746;BME280;65671;49.976;20.038;2023-07-20T02:03:04;97244.91;;;17.69;93.65
76746;BME280;65671;49.976;20.038;2023-07-20T02:05:30;97236.84;;;17.75;92.80
76746;BME280;65671;49.976;20.038;2023-07-20T02:07:55;97249.03;;;17.83;92.22
76746;BME280;65671;49.976;20.038;2023-07-20T02:10:21;97241.88;;;17.76;92.82
76746;BME280;65671;49.976;20.038;2023-07-20T02:12:46;97244.47;;;17.80;92.57
76746;BME280;65671;49.976;20.038;2023-07-20T02:15:14;97240.50;;;17.81;91.78
76746;BME280;65671;49.976;20.038;2023-07-20T02:17:41;97232.59;;;17.83;92.42
76746;BME280;65671;49.976;20.038;2023-07-20T02:20:10;97228.34;;;17.73;92.41
76746;BME280;65671;49.976;20.038;2023-07-20T02:22:39;97221.81;;;17.70;92.41
76746;BME280;65671;49.976;20.038;2023-07-20T02:25:06;97222.25;;;17.69;91.70
76746;BME280;65671;49.976;20.038;2023-07-20T02:27:33;97221.50;;;17.68;89.27
76746;BME280;65671;49.976;20.038;2023-07-20T02:29:58;97211.16;;;17.81;88.30
76746;BME280;65671;49.976;20.038;2023-07-20T02:32:24;97206.44;;;17.91;85.45
76746;BME280;65671;49.976;20.038;2023-07-20T02:34:49;97205.66;;;17.91;84.32
76746;BME280;65671;49.976;20.038;2023-07-20T02:37:16;97202.16;;;17.99;83.45
76746;BME280;65671;49.976;20.038;2023-07-20T02:39:42;97194.22;;;18.01;83.93
76746;BME280;65671;49.976;20.038;2023-07-20T02:42:07;97202.28;;;18.05;83.77
76746;BME280;65671;49.976;20.038;2023-07-20T02:44:32;97196.03;;;18.04;82.59
76746;BME280;65671;49.976;20.038;2023-07-20T02:46:58;97210.66;;;18.01;84.02
76746;BME280;65671;49.976;20.038;2023-07-20T02:49:23;97208.09;;;18.07;82.62
76746;BME280;65671;49.976;20.038;2023-07-20T02:51:49;97212.81;;;17.97;84.36
76746;BME280;65671;49.976;20.038;2023-07-20T02:54:14;97221.03;;;17.88;86.08
76746;BME280;65671;49.976;20.038;2023-07-20T02:56:40;97232.91;;;17.85;88.29
76746;BME280;65671;49.976;20.038;2023-07-20T02:59:05;97226.38;;;17.73;89.30
76746;BME280;65671;49.976;20.038;2023-07-20T03:01:31;97246.44;;;17.70;90.09
76746;BME280;65671;49.976;20.038;2023-07-20T03:03:56;97230.78;;;17.62;91.66
76746;BME280;65671;49.976;20.038;2023-07-20T03:06:23;97238.09;;;17.56;93.09
76746;BME280;65671;49.976;20.038;2023-07-20T03:08:48;97234.69;;;17.52;94.07
76746;BME280;65671;49.976;20.038;2023-07-20T03:11:18;97243.38;;;17.41;93.74
76746;BME280;65671;49.976;20.038;2023-07-20T03:13:44;97248.06;;;17.41;94.03
76746;BME280;65671;49.976;20.038;2023-07-20T03:16:11;97238.19;;;17.34;93.47
76746;BME280;65671;49.976;20.038;2023-07-20T03:18:43;97242.59;;;17.32;94.44
76746;BME280;65671;49.976;20.038;2023-07-20T03:21:10;97252.47;;;17.38;93.86
76746;BME280;65671;49.976;20.038;2023-07-20T03:23:40;97256.28;;;17.50;92.93
76746;BME280;65671;49.976;20.038;2023-07-20T03:26:06;97255.66;;;17.37;93.04
76746;BME280;65671;49.976;20.038;2023-07-20T03:28:36;97257.19;;;17.38;93.62
76746;BME280;65671;49.976;20.038;2023-07-20T03:31:02;97259.00;;;17.32;93.90
76746;BME280;65671;49.976;20.038;2023-07-20T03:33:28;97267.16;;;17.13;95.03
76746;BME280;65671;49.976;20.038;2023-07-20T03:35:55;97267.78;;;17.08;96.17
76746;BME280;65671;49.976;20.038;2023-07-20T03:38:21;97269.59;;;17.11;96.09
76746;BME280;65671;49.976;20.038;2023-07-20T03:40:53;97264.44;;;17.13;96.20
76746;BME280;65671;49.976;20.038;2023-07-20T03:43:20;97264.16;;;17.20;94.94
76746;BME280;65671;49.976;20.038;2023-07-20T03:45:46;97279.03;;;17.19;94.42
76746;BME280;65671;49.976;20.038;2023-07-20T03:48:13;97295.47;;;17.19;95.01
76746;BME280;65671;49.976;20.038;2023-07-20T03:50:38;97295.75;;;17.21;94.94
76746;BME280;65671;49.976;20.038;2023-07-20T03:53:04;97294.22;;;17.11;95.91
76746;BME280;65671;49.976;20.038;2023-07-20T03:55:30;97298.47;;;17.12;95.83
76746;BME280;65671;49.976;20.038;2023-07-20T03:57:56;97310.59;;;17.02;95.28
76746;BME280;65671;49.976;20.038;2023-07-20T04:00:21;97302.44;;;17.11;95.46
76746;BME280;65671;49.976;20.038;2023-07-20T04:02:46;97299.38;;;17.09;96.38
76746;BME280;65671;49.976;20.038;2023-07-20T04:05:12;97311.03;;;17.01;97.65
76746;BME280;65671;49.976;20.038;2023-07-20T04:07:37;97314.72;;;17.07;95.42
76746;BME280;65671;49.976;20.038;2023-07-20T04:10:03;97326.41;;;17.07;95.66
76746;BME280;65671;49.976;20.038;2023-07-20T04:12:29;97341.03;;;17.13;95.94
76746;BME280;65671;49.976;20.038;2023-07-20T04:14:54;97347.09;;;17.08;95.80
76746;BME280;65671;49.976;20.038;2023-07-20T04:17:20;97343.72;;;17.04;95.29
76746;BME280;65671;49.976;20.038;2023-07-20T04:19:45;97350.09;;;17.01;96.11
76746;BME280;65671;49.976;20.038;2023-07-20T04:22:10;97362.28;;;17.09;95.88
76746;BME280;65671;49.976;20.038;2023-07-20T04:24:36;97363.47;;;16.99;96.58
76746;BME280;65671;49.976;20.038;2023-07-20T04:27:01;97365.94;;;17.06;96.47
76746;BME280;65671;49.976;20.038;2023-07-20T04:29:27;97367.94;;;17.15;96.13
76746;BME280;65671;49.976;20.038;2023-07-20T04:31:52;97380.66;;;17.00;96.30
76746;BME280;65671;49.976;20.038;2023-07-20T04:34:18;97382.03;;;17.04;97.65
76746;BME280;65671;49.976;20.038;2023-07-20T04:36:43;97366.38;;;17.05;96.42
76746;BME280;65671;49.976;20.038;2023-07-20T04:39:09;97393.75;;;17.45;94.54
76746;BME280;65671;49.976;20.038;2023-07-20T04:41:35;97397.06;;;17.40;94.78
76746;BME280;65671;49.976;20.038;2023-07-20T04:44:01;97397.97;;;17.37;94.37
76746;BME280;65671;49.976;20.038;2023-07-20T04:46:26;97399.03;;;17.39;95.73
76746;BME280;65671;49.976;20.038;2023-07-20T04:48:51;97392.88;;;17.57;94.25
76746;BME280;65671;49.976;20.038;2023-07-20T04:51:17;97399.28;;;17.63;93.49
76746;BME280;65671;49.976;20.038;2023-07-20T04:53:46;97397.88;;;17.49;95.48
76746;BME280;65671;49.976;20.038;2023-07-20T04:56:12;97404.50;;;17.39;93.48
76746;BME280;65671;49.976;20.038;2023-07-20T04:58:37;97417.16;;;17.46;93.83
76746;BME280;65671;49.976;20.038;2023-07-20T05:01:03;97415.25;;;17.55;93.07
76746;BME280;65671;49.976;20.038;2023-07-20T05:03:28;97419.22;;;17.63;94.11
76746;BME280;65671;49.976;20.038;2023-07-20T05:05:54;97422.19;;;17.47;93.49
76746;BME280;65671;49.976;20.038;2023-07-20T05:08:20;97425.66;;;17.39;93.32
76746;BME280;65671;49.976;20.038;2023-07-20T05:10:47;97442.09;;;17.39;93.21
76746;BME280;65671;49.976;20.038;2023-07-20T05:13:13;97441.06;;;17.14;94.14
76746;BME280;65671;49.976;20.038;2023-07-20T05:15:38;97444.81;;;17.39;93.55
76746;BME280;65671;49.976;20.038;2023-07-20T05:18:04;97452.22;;;17.29;93.02
76746;BME280;65671;49.976;20.038;2023-07-20T05:20:29;97446.06;;;17.47;92.60
76746;BME280;65671;49.976;20.038;2023-07-20T05:22:57;97444.44;;;17.27;93.37
76746;BME280;65671;49.976;20.038;2023-07-20T05:25:22;97451.59;;;17.25;94.93
76746;BME280;65671;49.976;20.038;2023-07-20T05:27:48;97446.94;;;17.13;95.60
76746;BME280;65671;49.976;20.038;2023-07-20T05:30:13;97438.44;;;17.11;96.19
76746;BME280;65671;49.976;20.038;2023-07-20T05:32:39;97443.09;;;17.01;95.80
76746;BME280;65671;49.976;20.038;2023-07-20T05:35:04;97455.50;;;16.93;96.18
76746;BME280;65671;49.976;20.038;2023-07-20T05:37:30;97449.59;;;16.73;96.27
76746;BME280;65671;49.976;20.038;2023-07-20T05:39:57;97446.09;;;17.25;95.22
76746;BME280;65671;49.976;20.038;2023-07-20T05:42:22;97451.91;;;17.58;94.13
76746;BME280;65671;49.976;20.038;2023-07-20T05:44:48;97452.16;;;17.81;93.08
76746;BME280;65671;49.976;20.038;2023-07-20T05:47:15;97445.13;;;17.80;91.11
76746;BME280;65671;49.976;20.038;2023-07-20T05:49:40;97451.19;;;18.24;91.25
76746;BME280;65671;49.976;20.038;2023-07-20T05:52:06;97447.06;;;18.20;89.20
76746;BME280;65671;49.976;20.038;2023-07-20T05:54:31;97438.06;;;18.37;89.69
76746;BME280;65671;49.976;20.038;2023-07-20T05:56:57;97436.38;;;18.13;88.61
76746;BME280;65671;49.976;20.038;2023-07-20T05:59:22;97425.44;;;18.31;89.26
76746;BME280;65671;49.976;20.038;2023-07-20T06:01:49;97416.16;;;18.37;89.56
76746;BME280;65671;49.976;20.038;2023-07-20T06:04:15;97426.97;;;18.41;85.88
76746;BME280;65671;49.976;20.038;2023-07-20T06:06:40;97420.13;;;18.27;86.82
76746;BME280;65671;49.976;20.038;2023-07-20T06:09:06;97435.63;;;18.30;87.01
76746;BME280;65671;49.976;20.038;2023-07-20T06:11:35;97425.91;;;18.38;85.08
76746;BME280;65671;49.976;20.038;2023-07-20T06:14:01;97429.41;;;18.66;85.19
76746;BME280;65671;49.976;20.038;2023-07-20T06:16:27;97422.56;;;18.80;84.66
76746;BME280;65671;49.976;20.038;2023-07-20T06:18:52;97433.50;;;19.07;84.06
76746;BME280;65671;49.976;20.038;2023-07-20T06:21:17;97418.50;;;19.17;80.65
76746;BME280;65671;49.976;20.038;2023-07-20T06:23:43;97412.69;;;19.24;84.90
76746;BME280;65671;49.976;20.038;2023-07-20T06:26:08;97412.94;;;19.44;82.07
76746;BME280;65671;49.976;20.038;2023-07-20T06:28:34;97407.63;;;19.41;82.54
76746;BME280;65671;49.976;20.038;2023-07-20T06:31:00;97414.75;;;19.80;80.89
76746;BME280;65671;49.976;20.038;2023-07-20T06:33:26;97408.03;;;19.48;82.11
76746;BME280;65671;49.976;20.038;2023-07-20T06:35:52;97409.59;;;19.40;82.47
76746;BME280;65671;49.976;20.038;2023-07-20T06:38:18;97418.22;;;19.15;84.10
76746;BME280;65671;49.976;20.038;2023-07-20T06:40:46;97409.00;;;19.36;83.00
76746;BME280;65671;49.976;20.038;2023-07-20T06:43:11;97407.31;;;19.39;79.96
76746;BME280;65671;49.976;20.038;2023-07-20T06:45:37;97405.03;;;19.70;79.42
76746;BME280;65671;49.976;20.038;2023-07-20T06:48:02;97408.44;;;19.65;79.09
76746;BME280;65671;49.976;20.038;2023-07-20T06:50:28;97415.94;;;19.88;78.09
76746;BME280;65671;49.976;20.038;2023-07-20T06:52:54;97407.91;;;19.76;77.44
76746;BME280;65671;49.976;20.038;2023-07-20T06:55:19;97408.16;;;19.87;80.02
76746;BME280;65671;49.976;20.038;2023-07-20T06:57:45;97414.56;;;19.60;77.54
76746;BME280;65671;49.976;20.038;2023-07-20T07:00:11;97406.84;;;19.73;79.35
76746;BME280;65671;49.976;20.038;2023-07-20T07:02:37;97412.69;;;19.90;79.25
76746;BME280;65671;49.976;20.038;2023-07-20T07:05:03;97402.66;;;19.87;78.98
76746;BME280;65671;49.976;20.038;2023-07-20T07:07:29;97411.13;;;19.74;79.26
76746;BME280;65671;49.976;20.038;2023-07-20T07:09:54;97407.31;;;19.39;78.94
76746;BME280;65671;49.976;20.038;2023-07-20T07:12:20;97411.19;;;19.89;80.82
76746;BME280;65671;49.976;20.038;2023-07-20T07:14:45;97416.56;;;19.83;76.55
76746;BME280;65671;49.976;20.038;2023-07-20T07:17:10;97412.94;;;20.01;79.68
76746;BME280;65671;49.976;20.038;2023-07-20T07:19:36;97419.56;;;20.42;80.45
76746;BME280;65671;49.976;20.038;2023-07-20T07:22:03;97416.16;;;20.23;77.98
76746;BME280;65671;49.976;20.038;2023-07-20T07:24:28;97423.69;;;20.14;78.93
76746;BME280;65671;49.976;20.038;2023-07-20T07:26:59;97419.78;;;20.05;78.37
76746;BME280;65671;49.976;20.038;2023-07-20T07:29:24;97426.97;;;20.50;78.53
76746;BME280;65671;49.976;20.038;2023-07-20T07:31:51;97427.75;;;20.66;75.64
76746;BME280;65671;49.976;20.038;2023-07-20T07:34:16;97429.38;;;20.57;75.44
76746;BME280;65671;49.976;20.038;2023-07-20T07:36:43;97444.97;;;20.37;79.68
76746;BME280;65671;49.976;20.038;2023-07-20T07:39:08;97438.97;;;19.58;73.76
76746;BME280;65671;49.976;20.038;2023-07-20T07:41:34;97434.44;;;19.79;80.00
76746;BME280;65671;49.976;20.038;2023-07-20T07:44:00;97430.00;;;20.05;75.29
76746;BME280;65671;49.976;20.038;2023-07-20T07:46:25;97436.19;;;19.16;75.86
76746;BME280;65671;49.976;20.038;2023-07-20T07:48:51;97447.66;;;19.06;78.22
76746;BME280;65671;49.976;20.038;2023-07-20T07:51:16;97446.22;;;19.28;80.93
76746;BME280;65671;49.976;20.038;2023-07-20T07:53:42;97449.97;;;19.49;76.43
76746;BME280;65671;49.976;20.038;2023-07-20T07:56:09;97450.50;;;20.51;79.20
76746;BME280;65671;49.976;20.038;2023-07-20T07:58:34;97451.88;;;21.58;77.00
76746;BME280;65671;49.976;20.038;2023-07-20T08:01:00;97451.06;;;20.55;73.73
76746;BME280;65671;49.976;20.038;2023-07-20T08:03:25;97449.19;;;20.14;75.44
76746;BME280;65671;49.976;20.038;2023-07-20T08:05:56;97450.91;;;19.46;76.50
76746;BME280;65671;49.976;20.038;2023-07-20T08:08:22;97445.38;;;19.04;79.28
76746;BME280;65671;49.976;20.038;2023-07-20T08:10:48;97444.69;;;19.36;81.81
76746;BME280;65671;49.976;20.038;2023-07-20T08:13:13;97444.75;;;19.93;78.41
76746;BME280;65671;49.976;20.038;2023-07-20T08:15:39;97448.81;;;20.07;80.69
76746;BME280;65671;49.976;20.038;2023-07-20T08:18:06;97447.72;;;20.37;77.88
76746;BME280;65671;49.976;20.038;2023-07-20T08:20:32;97443.88;;;20.73;79.42
76746;BME280;65671;49.976;20.038;2023-07-20T08:23:01;97442.00;;;19.93;77.33
76746;BME280;65671;49.976;20.038;2023-07-20T08:25:26;97446.16;;;19.88;79.34
76746;BME280;65671;49.976;20.038;2023-07-20T08:27:52;97448.56;;;19.63;79.89
76746;BME280;65671;49.976;20.038;2023-07-20T08:30:21;97457.09;;;19.65;80.28
76746;BME280;65671;49.976;20.038;2023-07-20T08:32:48;97459.97;;;20.50;78.78
76746;BME280;65671;49.976;20.038;2023-07-20T08:35:14;97469.03;;;20.66;76.95
76746;BME280;65671;49.976;20.038;2023-07-20T08:37:40;97464.19;;;20.61;77.41
76746;BME280;65671;49.976;20.038;2023-07-20T08:40:06;97476.13;;;20.57;81.48
76746;BME280;65671;49.976;20.038;2023-07-20T08:42:35;97488.28;;;20.66;78.14
76746;BME280;65671;49.976;20.038;2023-07-20T08:45:05;97477.97;;;20.04;76.67
76746;BME280;65671;49.976;20.038;2023-07-20T08:47:31;97473.66;;;20.12;79.28
76746;BME280;65671;49.976;20.038;2023-07-20T08:49:58;97476.78;;;20.29;75.04
76746;BME280;65671;49.976;20.038;2023-07-20T08:52:24;97473.88;;;19.99;78.95
76746;BME280;65671;49.976;20.038;2023-07-20T08:54:50;97453.41;;;20.24;80.29
76746;BME280;65671;49.976;20.038;2023-07-20T08:57:18;97476.59;;;21.38;78.21
76746;BME280;65671;49.976;20.038;2023-07-20T08:59:44;97482.88;;;20.71;75.43
76746;BME280;65671;49.976;20.038;2023-07-20T09:02:14;97484.44;;;20.48;75.41
76746;BME280;65671;49.976;20.038;2023-07-20T09:04:41;97479.63;;;21.11;74.64
76746;BME280;65671;49.976;20.038;2023-07-20T09:07:09;97472.63;;;22.03;71.90
76746;BME280;65671;49.976;20.038;2023-07-20T09:09:39;97479.16;;;22.06;72.11
76746;BME280;65671;49.976;20.038;2023-07-20T09:12:13;97471.75;;;21.48;74.78
76746;BME280;65671;49.976;20.038;2023-07-20T09:14:38;97475.94;;;21.58;75.61
76746;BME280;65671;49.976;20.038;2023-07-20T09:17:04;97475.63;;;21.70;73.45
76746;BME280;65671;49.976;20.038;2023-07-20T09:19:30;97480.81;;;21.98;71.43
76746;BME280;65671;49.976;20.038;2023-07-20T09:21:55;97462.38;;;22.04;70.92
76746;BME280;65671;49.976;20.038;2023-07-20T09:24:21;97466.72;;;22.71;69.75
76746;BME280;65671;49.976;20.038;2023-07-20T09:26:48;97468.81;;;23.02;67.72
76746;BME280;65671;49.976;20.038;2023-07-20T09:29:14;97465.34;;;23.32;68.92
76746;BME280;65671;49.976;20.038;2023-07-20T09:31:58;97469.53;;;22.97;67.74
76746;BME280;65671;49.976;20.038;2023-07-20T09:34:24;97471.00;;;22.52;67.98
76746;BME280;65671;49.976;20.038;2023-07-20T09:36:50;97467.03;;;22.99;70.71
76746;BME280;65671;49.976;20.038;2023-07-20T09:39:16;97465.00;;;22.73;66.88
76746;BME280;65671;49.976;20.038;2023-07-20T09:41:42;97463.84;;;21.70;70.44
76746;BME280;65671;49.976;20.038;2023-07-20T09:44:07;97464.91;;;22.07;70.52
76746;BME280;65671;49.976;20.038;2023-07-20T09:46:46;97478.25;;;21.80;64.64
76746;BME280;65671;49.976;20.038;2023-07-20T09:49:12;97479.28;;;21.97;65.21
76746;BME280;65671;49.976;20.038;2023-07-20T09:51:38;97470.91;;;22.06;66.04
76746;BME280;65671;49.976;20.038;2023-07-20T09:54:05;97451.72;;;23.23;70.13
76746;BME280;65671;49.976;20.038;2023-07-20T09:56:31;97467.19;;;22.90;62.63
76746;BME280;65671;49.976;20.038;2023-07-20T09:58:58;97467.25;;;23.21;65.79
76746;BME280;65671;49.976;20.038;2023-07-20T10:01:24;97477.41;;;22.84;63.05
76746;BME280;65671;49.976;20.038;2023-07-20T10:03:53;97472.38;;;23.33;62.16
76746;BME280;65671;49.976;20.038;2023-07-20T10:06:23;97469.78;;;23.50;62.84
76746;BME280;65671;49.976;20.038;2023-07-20T10:08:55;97467.41;;;23.38;65.22
76746;BME280;65671;49.976;20.038;2023-07-20T10:11:22;97469.88;;;22.23;61.37
76746;BME280;65671;49.976;20.038;2023-07-20T10:13:53;97479.28;;;21.97;65.47
76746;BME280;65671;49.976;20.038;2023-07-20T10:16:28;97471.06;;;22.57;67.74
76746;BME280;65671;49.976;20.038;2023-07-20T10:19:07;97466.34;;;23.98;63.87
76746;BME280;65671;49.976;20.038;2023-07-20T10:21:45;97467.53;;;23.85;60.94
76746;BME280;65671;49.976;20.038;2023-07-20T10:24:13;97465.56;;;23.03;62.23
76746;BME280;65671;49.976;20.038;2023-07-20T10:26:39;97480.44;;;22.86;61.49
76746;BME280;65671;49.976;20.038;2023-07-20T10:29:04;97477.84;;;22.36;62.52
76746;BME280;65671;49.976;20.038;2023-07-20T10:31:31;97485.91;;;22.60;61.58
76746;BME280;65671;49.976;20.038;2023-07-20T10:33:57;97484.75;;;22.46;63.58
76746;BME280;65671;49.976;20.038;2023-07-20T10:36:27;97474.91;;;22.05;63.92
76746;BME280;65671;49.976;20.038;2023-07-20T10:38:53;97471.44;;;21.90;62.64
76746;BME280;65671;49.976;20.038;2023-07-20T10:41:27;97470.59;;;21.69;65.43
76746;BME280;65671;49.976;20.038;2023-07-20T10:43:59;97467.63;;;22.22;61.02
76746;BME280;65671;49.976;20.038;2023-07-20T10:49:03;97459.59;;;23.36;66.41
76746;BME280;65671;49.976;20.038;2023-07-20T10:51:30;97457.69;;;23.48;63.35
76746;BME280;65671;49.976;20.038;2023-07-20T10:54:02;97469.41;;;22.45;62.11
76746;BME280;65671;49.976;20.038;2023-07-20T10:56:27;97475.19;;;22.07;66.82
76746;BME280;65671;49.976;20.038;2023-07-20T10:59:01;97462.16;;;22.48;61.60
76746;BME280;65671;49.976;20.038;2023-07-20T11:01:43;97459.53;;;21.49;62.39
76746;BME280;65671;49.976;20.038;2023-07-20T11:04:09;97465.31;;;21.51;66.19
76746;BME280;65671;49.976;20.038;2023-07-20T11:06:34;97467.59;;;22.02;62.34
76746;BME280;65671;49.976;20.038;2023-07-20T11:11:41;97465.34;;;23.07;59.68
76746;BME280;65671;49.976;20.038;2023-07-20T11:14:09;97452.97;;;22.97;59.00
76746;BME280;65671;49.976;20.038;2023-07-20T11:16:40;97452.06;;;23.37;60.11
76746;BME280;65671;49.976;20.038;2023-07-20T11:19:21;97453.81;;;23.65;59.69
76746;BME280;65671;49.976;20.038;2023-07-20T11:21:58;97446.69;;;22.96;58.62
76746;BME280;65671;49.976;20.038;2023-07-20T11:24:24;97449.06;;;23.66;61.36
76746;BME280;65671;49.976;20.038;2023-07-20T11:26:51;97442.69;;;24.33;59.36
76746;BME280;65671;49.976;20.038;2023-07-20T11:29:22;97457.72;;;22.96;57.22
76746;BME280;65671;49.976;20.038;2023-07-20T11:31:49;97451.09;;;23.71;58.31
76746;BME280;65671;49.976;20.038;2023-07-20T11:34:17;97448.78;;;24.06;59.59
76746;BME280;65671;49.976;20.038;2023-07-20T11:36:49;97453.31;;;24.04;57.36
76746;BME280;65671;49.976;20.038;2023-07-20T11:39:17;97454.84;;;23.11;55.40
76746;BME280;65671;49.976;20.038;2023-07-20T11:41:52;97453.28;;;22.38;59.46
76746;BME280;65671;49.976;20.038;2023-07-20T11:44:18;97452.72;;;22.74;63.40
76746;BME280;65671;49.976;20.038;2023-07-20T11:46:44;97454.78;;;22.19;62.95
76746;BME280;65671;49.976;20.038;2023-07-20T11:49:11;97452.16;;;22.10;61.70
76746;BME280;65671;49.976;20.038;2023-07-20T11:51:37;97449.75;;;21.83;64.24
76746;BME280;65671;49.976;20.038;2023-07-20T11:54:04;97450.41;;;21.43;66.76
76746;BME280;65671;49.976;20.038;2023-07-20T11:56:30;97460.53;;;21.66;66.35
76746;BME280;65671;49.976;20.038;2023-07-20T11:58:58;97422.25;;;22.23;60.07
76746;BME280;65671;49.976;20.038;2023-07-20T12:01:24;97438.00;;;22.83;59.94
76746;BME280;65671;49.976;20.038;2023-07-20T12:03:55;97445.25;;;23.63;62.69
76746;BME280;65671;49.976;20.038;2023-07-20T12:06:26;97434.06;;;24.15;59.00
76746;BME280;65671;49.976;20.038;2023-07-20T12:08:54;97426.16;;;23.65;62.27
76746;BME280;65671;49.976;20.038;2023-07-20T12:11:34;97436.44;;;22.76;59.11
76746;BME280;65671;49.976;20.038;2023-07-20T12:14:01;97420.50;;;23.43;57.54
76746;BME280;65671;49.976;20.038;2023-07-20T12:16:28;97422.34;;;23.57;59.07
76746;BME280;65671;49.976;20.038;2023-07-20T12:19:07;97427.31;;;22.91;60.16
76746;BME280;65671;49.976;20.038;2023-07-20T12:21:39;97428.16;;;22.56;60.43
76746;BME280;65671;49.976;20.038;2023-07-20T12:24:05;97420.56;;;22.97;62.38
76746;BME280;65671;49.976;20.038;2023-07-20T12:26:32;97416.38;;;23.64;62.51
76746;BME280;65671;49.976;20.038;2023-07-20T12:28:58;97430.69;;;23.31;59.61
76746;BME280;65671;49.976;20.038;2023-07-20T12:31:25;97429.34;;;23.21;60.39
76746;BME280;65671;49.976;20.038;2023-07-20T12:33:51;97425.81;;;23.47;61.87
76746;BME280;65671;49.976;20.038;2023-07-20T12:36:17;97422.72;;;23.70;61.85
76746;BME280;65671;49.976;20.038;2023-07-20T12:38:42;97412.03;;;23.52;59.02
76746;BME280;65671;49.976;20.038;2023-07-20T12:41:10;97434.38;;;23.23;58.18
76746;BME280;65671;49.976;20.038;2023-07-20T12:43:37;97426.13;;;22.11;62.96
76746;BME280;65671;49.976;20.038;2023-07-20T12:46:03;97420.44;;;22.00;65.69
76746;BME280;65671;49.976;20.038;2023-07-20T12:48:28;97423.91;;;22.15;64.03
76746;BME280;65671;49.976;20.038;2023-07-20T12:50:54;97419.78;;;22.25;67.52
76746;BME280;65671;49.976;20.038;2023-07-20T12:53:20;97415.69;;;22.61;65.84
76746;BME280;65671;49.976;20.038;2023-07-20T12:55:45;97415.97;;;23.40;60.97
76746;BME280;65671;49.976;20.038;2023-07-20T12:58:11;97417.88;;;23.65;57.18
76746;BME280;65671;49.976;20.038;2023-07-20T13:00:38;97415.06;;;23.97;63.07
76746;BME280;65671;49.976;20.038;2023-07-20T13:03:03;97412.44;;;24.19;57.76
76746;BME280;65671;49.976;20.038;2023-07-20T13:05:34;97414.13;;;23.68;57.96